Terminal Aerodrome Forecast
Issued by NWS Charleston, WV

Current Version | Previous Version | Text Only | Print | Product List | Glossary Off
Versions: 1 2 3 4 5 6 7 8 9 10 11 12 13 14 15 16 17 18 19 20 21 22 23 24 25 26 27 28 29 30 31 32 33

738
FTUS41 KRLX 191924 AAA
TAFPKB
TAF AMD
KPKB 191924Z 1919/2018 25008KT P6SM SCT045
     FM192100 26008KT P6SM VCTS BKN035CB
      TEMPO 1921/1922 1SM TSRA BKN025CB
     FM192200 27007KT P6SM SCT045
     FM200000 VRB03KT P6SM SCT040
     FM200600 00000KT 5SM BR FEW150
     FM200900 00000KT 1/4SM FG VV001
     FM201200 00000KT 2SM BR BKN001
     FM201300 00000KT P6SM BKN250=

USA.gov is the U.S. government's official web portal to all federal, state and local government web resources and services.